Airfield :







YOU CAN JOIN US ON...

 
LOGIN :

Register | Disclaimer

   EN    FR    IT 

 









Legend :    VFR   Marginal VFR   IFR   Intensive IFR   Very Intensive IFR
Visi :
Ceiling :
>= 8 km
>= 3000ft
5 to 8 km
1000 to 3000 ft
1500m to 5 km
500 to 1000 ft
800 to 1500m
200 to 500 ft
< 800m
< 200 ft
Symbols :   Thunderstorms  Fog  Heavy snow  Heavy precipitations  Wind > 20 kt






- Airport Elevation : 232 ft
- IATA code : YQM


CYQM - Greater Moncton International

CURRENT METAR :
  • 032014Z 21005KT 15SM SCT054TCU BKN110 20/15 A2983 RMK TCU3AC4 SH NE-S SLP104 DENSITY ALT 1100FT

EXPIRED METARs :
  • 032000Z 22005KT 15SM -SHRA SCT058TCU BKN100 20/15 A2984 RMK TCU3AC4 SLP106 DENSITY ALT 1000FT
  • 031941Z 21009KT 15SM BKN054TCU BKN110 20/15 A2984 RMK TCU5AC2 SH NW NE-SW SLP108 DENSITY ALT 1000FT
  • 031902Z 33009KT 15SM -SHRA BKN054TCU BKN100 BKN250 21/12 A2983 RMK TCU5AC1CI1 SLP104 DENSITY ALT 1100FT
  • 030500Z 21007KT 15SM BKN078 16/16 A2980 RMK AC5 SLP094 DENSITY ALT 600FT
  • 031800Z 21008KT 15SM SCT058TCU SCT240 25/14 A2982 RMK TCU3CI1 SH NW-NNE ESE SLP099 DENSITY ALT 1600FT
  • 031740Z 20009G17KT 15SM BKN058TCU BKN240 23/15 A2983 RMK TCU5CI1 CI TR SLP103 DENSITY ALT 1400FT

TAF AMD TAF CYQM
Valid from the 03 at 19:00 until the 04 at 18:00 UTC


031902Z 0319/0418 33007KT P6SM BKN050 BKN120
TEMPO 0319/0321 VRB15G25KT 2SM TSRA BR BKN020 OVC050CB
FM040000 18007KT P6SM SCT060
TEMPO 0400/0406 P6SM -SHRA BKN060
BECMG 0401/0403 21008KT
FM040600 25009KT P6SM BKN080
FM040900 26008KT P6SM SCT040 BKN120
FM041200 28010G20KT P6SM SCT030
FM041500 27012G22KT P6SM SCT060 RMK NXT FCST BY 040000Z
CZQM FIR / North America



MET'MAP, your aeronautical weather chart ! - Copyright ORBIFLY December 2007 - Disclaimer

ORBIFLY MET'MAP TEAM :

Programming & Development : Alexandra Zaïnal
Original concept : Baudouin d'Aumeries
Technical & hardware support : Manuel Goepfert
Assistance : Marc-Olivier Méhu




SOURCES & CREDITS :

   NOAA